sensor_id;sensor_type;location;lat;lon;timestamp;P1;durP1;ratioP1;P2;durP2;ratioP2
34405;SDS011;20658;45.630;8.886;2023-06-22T00:01:51;21.70;;;12.15;;
34405;SDS011;20658;45.630;8.886;2023-06-22T00:04:25;18.35;;;10.70;;
34405;SDS011;20658;45.630;8.886;2023-06-22T00:06:59;19.33;;;10.77;;
34405;SDS011;20658;45.630;8.886;2023-06-22T00:09:33;21.73;;;10.68;;
34405;SDS011;20658;45.630;8.886;2023-06-22T00:12:07;17.95;;;9.43;;
34405;SDS011;20658;45.630;8.886;2023-06-22T00:14:36;19.55;;;9.90;;
34405;SDS011;20658;45.630;8.886;2023-06-22T00:17:09;18.15;;;9.02;;
34405;SDS011;20658;45.630;8.886;2023-06-22T00:19:43;20.58;;;9.63;;
34405;SDS011;20658;45.630;8.886;2023-06-22T00:22:20;20.85;;;10.30;;
34405;SDS011;20658;45.630;8.886;2023-06-22T00:24:59;20.27;;;9.57;;
34405;SDS011;20658;45.630;8.886;2023-06-22T00:27:33;18.50;;;9.48;;
34405;SDS011;20658;45.630;8.886;2023-06-22T00:30:07;18.40;;;9.23;;
34405;SDS011;20658;45.630;8.886;2023-06-22T00:32:42;21.92;;;9.10;;
34405;SDS011;20658;45.630;8.886;2023-06-22T00:35:16;17.27;;;10.98;;
34405;SDS011;20658;45.630;8.886;2023-06-22T00:37:51;19.60;;;10.38;;
34405;SDS011;20658;45.630;8.886;2023-06-22T00:40:24;21.63;;;9.80;;
34405;SDS011;20658;45.630;8.886;2023-06-22T00:42:58;20.65;;;9.68;;
34405;SDS011;20658;45.630;8.886;2023-06-22T00:45:32;23.23;;;10.13;;
34405;SDS011;20658;45.630;8.886;2023-06-22T00:48:06;15.27;;;9.80;;
34405;SDS011;20658;45.630;8.886;2023-06-22T00:50:41;17.02;;;9.00;;
34405;SDS011;20658;45.630;8.886;2023-06-22T00:53:17;21.38;;;9.02;;
34405;SDS011;20658;45.630;8.886;2023-06-22T00:55:53;19.15;;;9.80;;
34405;SDS011;20658;45.630;8.886;2023-06-22T00:58:27;19.05;;;9.20;;
34405;SDS011;20658;45.630;8.886;2023-06-22T01:01:00;17.90;;;9.35;;
34405;SDS011;20658;45.630;8.886;2023-06-22T01:03:34;16.15;;;8.88;;
34405;SDS011;20658;45.630;8.886;2023-06-22T01:06:09;19.83;;;9.30;;
34405;SDS011;20658;45.630;8.886;2023-06-22T01:08:51;17.20;;;8.27;;
34405;SDS011;20658;45.630;8.886;2023-06-22T01:11:36;16.15;;;9.05;;
34405;SDS011;20658;45.630;8.886;2023-06-22T01:14:14;20.83;;;10.10;;
34405;SDS011;20658;45.630;8.886;2023-06-22T01:16:55;22.92;;;9.68;;
34405;SDS011;20658;45.630;8.886;2023-06-22T01:19:29;18.42;;;9.77;;
34405;SDS011;20658;45.630;8.886;2023-06-22T01:22:15;19.73;;;10.20;;
34405;SDS011;20658;45.630;8.886;2023-06-22T01:24:51;15.63;;;9.47;;
34405;SDS011;20658;45.630;8.886;2023-06-22T01:27:43;24.05;;;9.93;;
34405;SDS011;20658;45.630;8.886;2023-06-22T01:30:27;29.92;;;10.27;;
34405;SDS011;20658;45.630;8.886;2023-06-22T01:32:58;18.73;;;9.93;;
34405;SDS011;20658;45.630;8.886;2023-06-22T01:35:32;20.45;;;9.98;;
34405;SDS011;20658;45.630;8.886;2023-06-22T01:38:06;20.73;;;10.05;;
34405;SDS011;20658;45.630;8.886;2023-06-22T01:40:41;22.42;;;10.73;;
34405;SDS011;20658;45.630;8.886;2023-06-22T01:43:15;18.77;;;9.98;;
34405;SDS011;20658;45.630;8.886;2023-06-22T01:45:51;20.00;;;10.32;;
34405;SDS011;20658;45.630;8.886;2023-06-22T01:48:25;19.83;;;9.30;;
34405;SDS011;20658;45.630;8.886;2023-06-22T01:51:00;22.42;;;9.23;;
34405;SDS011;20658;45.630;8.886;2023-06-22T01:53:30;18.67;;;9.20;;
34405;SDS011;20658;45.630;8.886;2023-06-22T01:56:03;25.55;;;9.73;;
34405;SDS011;20658;45.630;8.886;2023-06-22T01:58:40;15.77;;;9.32;;
34405;SDS011;20658;45.630;8.886;2023-06-22T02:01:24;18.42;;;8.73;;
34405;SDS011;20658;45.630;8.886;2023-06-22T02:04:06;18.13;;;10.10;;
34405;SDS011;20658;45.630;8.886;2023-06-22T02:06:46;26.65;;;10.52;;
34405;SDS011;20658;45.630;8.886;2023-06-22T02:09:24;22.95;;;9.02;;
34405;SDS011;20658;45.630;8.886;2023-06-22T02:12:02;23.77;;;8.95;;
34405;SDS011;20658;45.630;8.886;2023-06-22T02:14:37;20.48;;;8.80;;
34405;SDS011;20658;45.630;8.886;2023-06-22T02:17:12;17.50;;;8.48;;
34405;SDS011;20658;45.630;8.886;2023-06-22T02:19:41;20.77;;;8.50;;
34405;SDS011;20658;45.630;8.886;2023-06-22T02:22:14;20.00;;;9.52;;
34405;SDS011;20658;45.630;8.886;2023-06-22T02:24:48;23.45;;;9.57;;
34405;SDS011;20658;45.630;8.886;2023-06-22T02:27:21;18.40;;;9.30;;
34405;SDS011;20658;45.630;8.886;2023-06-22T02:29:55;17.15;;;10.27;;
34405;SDS011;20658;45.630;8.886;2023-06-22T02:32:25;19.23;;;10.32;;
34405;SDS011;20658;45.630;8.886;2023-06-22T02:34:54;22.98;;;9.88;;
34405;SDS011;20658;45.630;8.886;2023-06-22T02:37:27;14.38;;;9.45;;
34405;SDS011;20658;45.630;8.886;2023-06-22T02:40:01;20.50;;;9.80;;
34405;SDS011;20658;45.630;8.886;2023-06-22T02:42:35;21.63;;;9.23;;
34405;SDS011;20658;45.630;8.886;2023-06-22T02:45:09;21.75;;;11.32;;
34405;SDS011;20658;45.630;8.886;2023-06-22T02:47:39;17.67;;;9.88;;
34405;SDS011;20658;45.630;8.886;2023-06-22T02:50:13;20.88;;;9.20;;
34405;SDS011;20658;45.630;8.886;2023-06-22T02:52:46;24.33;;;8.93;;
34405;SDS011;20658;45.630;8.886;2023-06-22T02:55:20;18.83;;;9.68;;
34405;SDS011;20658;45.630;8.886;2023-06-22T02:57:57;19.00;;;8.90;;
34405;SDS011;20658;45.630;8.886;2023-06-22T03:00:33;18.27;;;8.85;;
34405;SDS011;20658;45.630;8.886;2023-06-22T03:03:08;18.52;;;9.40;;
34405;SDS011;20658;45.630;8.886;2023-06-22T03:05:41;15.15;;;8.40;;
34405;SDS011;20658;45.630;8.886;2023-06-22T03:08:15;19.38;;;9.20;;
34405;SDS011;20658;45.630;8.886;2023-06-22T03:10:49;21.50;;;9.68;;
34405;SDS011;20658;45.630;8.886;2023-06-22T03:13:17;17.20;;;8.32;;
34405;SDS011;20658;45.630;8.886;2023-06-22T03:15:51;22.13;;;10.55;;
34405;SDS011;20658;45.630;8.886;2023-06-22T03:18:27;18.80;;;9.57;;
34405;SDS011;20658;45.630;8.886;2023-06-22T03:21:00;24.73;;;9.35;;
34405;SDS011;20658;45.630;8.886;2023-06-22T03:23:34;19.88;;;9.30;;
34405;SDS011;20658;45.630;8.886;2023-06-22T03:26:08;17.38;;;9.32;;
34405;SDS011;20658;45.630;8.886;2023-06-22T03:28:41;15.18;;;8.55;;
34405;SDS011;20658;45.630;8.886;2023-06-22T03:31:15;17.50;;;9.10;;
34405;SDS011;20658;45.630;8.886;2023-06-22T03:33:54;21.40;;;9.15;;
34405;SDS011;20658;45.630;8.886;2023-06-22T03:36:28;16.70;;;8.30;;
34405;SDS011;20658;45.630;8.886;2023-06-22T03:39:02;19.25;;;9.18;;
34405;SDS011;20658;45.630;8.886;2023-06-22T03:41:36;19.67;;;10.15;;
34405;SDS011;20658;45.630;8.886;2023-06-22T03:44:09;22.92;;;11.32;;
34405;SDS011;20658;45.630;8.886;2023-06-22T03:46:43;25.23;;;11.45;;
34405;SDS011;20658;45.630;8.886;2023-06-22T03:49:19;25.60;;;10.50;;
34405;SDS011;20658;45.630;8.886;2023-06-22T03:51:53;22.48;;;10.43;;
34405;SDS011;20658;45.630;8.886;2023-06-22T03:54:26;22.33;;;10.45;;
34405;SDS011;20658;45.630;8.886;2023-06-22T03:57:01;22.08;;;9.90;;
34405;SDS011;20658;45.630;8.886;2023-06-22T03:59:34;18.33;;;9.32;;
34405;SDS011;20658;45.630;8.886;2023-06-22T04:02:08;21.00;;;11.55;;
34405;SDS011;20658;45.630;8.886;2023-06-22T04:04:43;25.20;;;11.55;;
34405;SDS011;20658;45.630;8.886;2023-06-22T04:07:16;25.80;;;13.60;;
34405;SDS011;20658;45.630;8.886;2023-06-22T04:09:50;29.75;;;14.25;;
34405;SDS011;20658;45.630;8.886;2023-06-22T04:12:23;24.83;;;12.35;;
34405;SDS011;20658;45.630;8.886;2023-06-22T04:14:57;22.63;;;11.10;;
34405;SDS011;20658;45.630;8.886;2023-06-22T04:17:30;20.27;;;9.48;;
34405;SDS011;20658;45.630;8.886;2023-06-22T04:20:06;17.58;;;9.13;;
34405;SDS011;20658;45.630;8.886;2023-06-22T04:22:41;20.98;;;9.88;;
34405;SDS011;20658;45.630;8.886;2023-06-22T04:25:14;18.10;;;9.70;;
34405;SDS011;20658;45.630;8.886;2023-06-22T04:27:48;19.23;;;9.38;;
34405;SDS011;20658;45.630;8.886;2023-06-22T04:30:22;23.38;;;9.60;;
34405;SDS011;20658;45.630;8.886;2023-06-22T04:32:55;19.10;;;9.13;;
34405;SDS011;20658;45.630;8.886;2023-06-22T04:35:30;19.73;;;9.27;;
34405;SDS011;20658;45.630;8.886;2023-06-22T04:38:04;25.13;;;9.68;;
34405;SDS011;20658;45.630;8.886;2023-06-22T04:40:37;26.73;;;12.60;;
34405;SDS011;20658;45.630;8.886;2023-06-22T04:43:11;31.27;;;12.93;;
34405;SDS011;20658;45.630;8.886;2023-06-22T04:45:44;27.33;;;12.45;;
34405;SDS011;20658;45.630;8.886;2023-06-22T04:48:17;22.85;;;9.40;;
34405;SDS011;20658;45.630;8.886;2023-06-22T04:50:52;23.60;;;10.25;;
34405;SDS011;20658;45.630;8.886;2023-06-22T04:53:25;21.63;;;9.25;;
34405;SDS011;20658;45.630;8.886;2023-06-22T04:56:01;17.50;;;8.95;;
34405;SDS011;20658;45.630;8.886;2023-06-22T04:58:35;22.25;;;8.82;;
34405;SDS011;20658;45.630;8.886;2023-06-22T05:01:09;21.85;;;9.88;;
34405;SDS011;20658;45.630;8.886;2023-06-22T05:03:42;23.02;;;9.70;;
34405;SDS011;20658;45.630;8.886;2023-06-22T05:06:17;24.27;;;8.50;;
34405;SDS011;20658;45.630;8.886;2023-06-22T05:08:51;19.20;;;8.70;;
34405;SDS011;20658;45.630;8.886;2023-06-22T05:11:28;26.60;;;9.35;;
34405;SDS011;20658;45.630;8.886;2023-06-22T05:14:02;19.85;;;9.25;;
34405;SDS011;20658;45.630;8.886;2023-06-22T05:16:35;19.50;;;9.32;;
34405;SDS011;20658;45.630;8.886;2023-06-22T05:19:09;21.85;;;9.98;;
34405;SDS011;20658;45.630;8.886;2023-06-22T05:21:44;26.48;;;9.32;;
34405;SDS011;20658;45.630;8.886;2023-06-22T05:24:18;27.73;;;10.82;;
34405;SDS011;20658;45.630;8.886;2023-06-22T05:26:51;25.65;;;10.40;;
34405;SDS011;20658;45.630;8.886;2023-06-22T05:29:25;35.17;;;10.88;;
34405;SDS011;20658;45.630;8.886;2023-06-22T05:31:58;34.63;;;10.50;;
34405;SDS011;20658;45.630;8.886;2023-06-22T05:34:32;39.58;;;10.55;;
34405;SDS011;20658;45.630;8.886;2023-06-22T05:37:07;44.88;;;12.20;;
34405;SDS011;20658;45.630;8.886;2023-06-22T05:39:42;36.55;;;10.30;;
34405;SDS011;20658;45.630;8.886;2023-06-22T05:42:15;20.67;;;10.02;;
34405;SDS011;20658;45.630;8.886;2023-06-22T05:44:48;19.65;;;9.63;;
34405;SDS011;20658;45.630;8.886;2023-06-22T05:47:22;24.38;;;10.30;;
34405;SDS011;20658;45.630;8.886;2023-06-22T05:49:55;28.88;;;10.57;;
34405;SDS011;20658;45.630;8.886;2023-06-22T05:52:31;23.73;;;9.80;;
34405;SDS011;20658;45.630;8.886;2023-06-22T05:55:04;20.10;;;9.68;;
34405;SDS011;20658;45.630;8.886;2023-06-22T05:57:34;24.05;;;10.18;;
34405;SDS011;20658;45.630;8.886;2023-06-22T06:00:07;20.05;;;8.43;;
34405;SDS011;20658;45.630;8.886;2023-06-22T06:02:44;17.30;;;7.90;;
34405;SDS011;20658;45.630;8.886;2023-06-22T06:05:12;18.02;;;8.90;;
34405;SDS011;20658;45.630;8.886;2023-06-22T06:07:47;24.15;;;8.80;;
34405;SDS011;20658;45.630;8.886;2023-06-22T06:10:16;20.30;;;8.65;;
34405;SDS011;20658;45.630;8.886;2023-06-22T06:12:44;15.65;;;7.28;;
34405;SDS011;20658;45.630;8.886;2023-06-22T06:15:18;18.95;;;7.40;;
34405;SDS011;20658;45.630;8.886;2023-06-22T06:17:51;17.65;;;8.43;;
34405;SDS011;20658;45.630;8.886;2023-06-22T06:20:26;18.27;;;8.32;;
34405;SDS011;20658;45.630;8.886;2023-06-22T06:23:01;23.65;;;8.68;;
34405;SDS011;20658;45.630;8.886;2023-06-22T06:25:35;24.70;;;10.05;;
34405;SDS011;20658;45.630;8.886;2023-06-22T06:28:08;25.63;;;8.98;;
34405;SDS011;20658;45.630;8.886;2023-06-22T06:30:42;19.38;;;9.20;;
34405;SDS011;20658;45.630;8.886;2023-06-22T06:33:15;21.50;;;8.52;;
34405;SDS011;20658;45.630;8.886;2023-06-22T06:35:49;25.23;;;9.65;;
34405;SDS011;20658;45.630;8.886;2023-06-22T06:38:24;22.13;;;8.30;;
34405;SDS011;20658;45.630;8.886;2023-06-22T06:40:57;25.23;;;9.77;;
34405;SDS011;20658;45.630;8.886;2023-06-22T06:43:31;27.77;;;9.68;;
34405;SDS011;20658;45.630;8.886;2023-06-22T06:46:05;22.55;;;7.78;;
34405;SDS011;20658;45.630;8.886;2023-06-22T06:48:38;24.33;;;8.75;;
34405;SDS011;20658;45.630;8.886;2023-06-22T06:51:12;29.33;;;8.10;;
34405;SDS011;20658;45.630;8.886;2023-06-22T06:53:47;23.73;;;9.35;;
34405;SDS011;20658;45.630;8.886;2023-06-22T06:56:20;22.15;;;7.82;;
34405;SDS011;20658;45.630;8.886;2023-06-22T06:58:54;23.58;;;7.95;;
34405;SDS011;20658;45.630;8.886;2023-06-22T07:01:30;26.75;;;8.50;;
34405;SDS011;20658;45.630;8.886;2023-06-22T07:04:05;26.33;;;8.75;;
34405;SDS011;20658;45.630;8.886;2023-06-22T07:06:38;23.25;;;8.43;;
34405;SDS011;20658;45.630;8.886;2023-06-22T07:09:13;19.02;;;7.80;;
34405;SDS011;20658;45.630;8.886;2023-06-22T07:11:46;14.38;;;6.43;;
34405;SDS011;20658;45.630;8.886;2023-06-22T07:14:15;24.50;;;8.57;;
34405;SDS011;20658;45.630;8.886;2023-06-22T07:16:48;27.38;;;9.65;;
34405;SDS011;20658;45.630;8.886;2023-06-22T07:19:24;21.63;;;7.82;;
34405;SDS011;20658;45.630;8.886;2023-06-22T07:21:58;20.55;;;7.47;;
34405;SDS011;20658;45.630;8.886;2023-06-22T07:24:33;21.20;;;7.97;;
34405;SDS011;20658;45.630;8.886;2023-06-22T07:27:06;21.98;;;7.78;;
34405;SDS011;20658;45.630;8.886;2023-06-22T07:29:42;22.38;;;7.88;;
34405;SDS011;20658;45.630;8.886;2023-06-22T07:32:16;19.95;;;8.30;;
34405;SDS011;20658;45.630;8.886;2023-06-22T07:34:49;21.95;;;7.50;;
34405;SDS011;20658;45.630;8.886;2023-06-22T07:37:23;16.83;;;7.07;;
34405;SDS011;20658;45.630;8.886;2023-06-22T07:40:00;18.38;;;6.95;;
34405;SDS011;20658;45.630;8.886;2023-06-22T07:42:37;15.00;;;6.53;;
34405;SDS011;20658;45.630;8.886;2023-06-22T07:45:10;18.60;;;6.50;;
34405;SDS011;20658;45.630;8.886;2023-06-22T07:47:44;18.70;;;7.25;;
34405;SDS011;20658;45.630;8.886;2023-06-22T07:50:17;19.70;;;7.32;;
34405;SDS011;20658;45.630;8.886;2023-06-22T07:52:51;22.42;;;7.82;;
34405;SDS011;20658;45.630;8.886;2023-06-22T07:55:26;21.83;;;8.07;;
34405;SDS011;20658;45.630;8.886;2023-06-22T07:57:59;17.70;;;8.30;;
34405;SDS011;20658;45.630;8.886;2023-06-22T08:00:33;19.92;;;8.25;;
34405;SDS011;20658;45.630;8.886;2023-06-22T08:03:07;17.35;;;7.78;;
34405;SDS011;20658;45.630;8.886;2023-06-22T08:05:40;14.40;;;7.50;;
34405;SDS011;20658;45.630;8.886;2023-06-22T08:08:14;18.67;;;8.15;;
34405;SDS011;20658;45.630;8.886;2023-06-22T08:10:49;17.63;;;6.97;;
34405;SDS011;20658;45.630;8.886;2023-06-22T08:13:23;17.15;;;6.90;;
34405;SDS011;20658;45.630;8.886;2023-06-22T08:15:56;21.20;;;7.80;;
34405;SDS011;20658;45.630;8.886;2023-06-22T08:18:30;15.65;;;7.03;;
34405;SDS011;20658;45.630;8.886;2023-06-22T08:21:03;19.23;;;7.88;;
34405;SDS011;20658;45.630;8.886;2023-06-22T08:23:37;18.42;;;8.18;;
34405;SDS011;20658;45.630;8.886;2023-06-22T08:26:11;17.98;;;7.82;;
34405;SDS011;20658;45.630;8.886;2023-06-22T08:28:45;18.63;;;8.20;;
34405;SDS011;20658;45.630;8.886;2023-06-22T08:31:18;16.80;;;7.30;;
34405;SDS011;20658;45.630;8.886;2023-06-22T08:33:52;18.90;;;7.63;;
34405;SDS011;20658;45.630;8.886;2023-06-22T08:36:25;23.52;;;8.27;;
34405;SDS011;20658;45.630;8.886;2023-06-22T08:39:00;17.20;;;7.25;;
34405;SDS011;20658;45.630;8.886;2023-06-22T08:41:36;18.20;;;7.53;;
34405;SDS011;20658;45.630;8.886;2023-06-22T08:44:04;21.15;;;7.13;;
34405;SDS011;20658;45.630;8.886;2023-06-22T08:46:38;20.65;;;7.13;;
34405;SDS011;20658;45.630;8.886;2023-06-22T08:49:12;18.60;;;7.47;;
34405;SDS011;20658;45.630;8.886;2023-06-22T08:51:45;23.55;;;7.88;;
34405;SDS011;20658;45.630;8.886;2023-06-22T08:54:20;18.55;;;6.82;;
34405;SDS011;20658;45.630;8.886;2023-06-22T08:56:55;17.30;;;6.80;;
34405;SDS011;20658;45.630;8.886;2023-06-22T08:59:29;14.75;;;7.28;;
34405;SDS011;20658;45.630;8.886;2023-06-22T09:02:02;23.27;;;7.45;;
34405;SDS011;20658;45.630;8.886;2023-06-22T09:04:37;17.63;;;7.22;;
34405;SDS011;20658;45.630;8.886;2023-06-22T09:07:10;14.73;;;6.60;;
34405;SDS011;20658;45.630;8.886;2023-06-22T09:09:44;13.95;;;6.47;;
34405;SDS011;20658;45.630;8.886;2023-06-22T09:12:19;11.88;;;5.72;;
34405;SDS011;20658;45.630;8.886;2023-06-22T09:14:57;16.55;;;6.10;;
34405;SDS011;20658;45.630;8.886;2023-06-22T09:17:32;14.07;;;5.97;;
34405;SDS011;20658;45.630;8.886;2023-06-22T09:20:07;11.50;;;5.72;;
34405;SDS011;20658;45.630;8.886;2023-06-22T09:22:42;16.75;;;5.85;;
34405;SDS011;20658;45.630;8.886;2023-06-22T09:25:16;15.32;;;5.95;;
34405;SDS011;20658;45.630;8.886;2023-06-22T09:27:53;18.92;;;6.80;;
34405;SDS011;20658;45.630;8.886;2023-06-22T09:30:26;21.67;;;7.30;;
34405;SDS011;20658;45.630;8.886;2023-06-22T09:32:59;17.30;;;5.95;;
34405;SDS011;20658;45.630;8.886;2023-06-22T09:35:28;12.93;;;5.68;;
34405;SDS011;20658;45.630;8.886;2023-06-22T09:38:02;12.48;;;5.78;;
34405;SDS011;20658;45.630;8.886;2023-06-22T09:40:35;16.52;;;5.97;;
34405;SDS011;20658;45.630;8.886;2023-06-22T09:43:12;13.15;;;5.80;;
34405;SDS011;20658;45.630;8.886;2023-06-22T09:45:46;14.35;;;6.15;;
34405;SDS011;20658;45.630;8.886;2023-06-22T09:48:19;17.95;;;5.82;;
34405;SDS011;20658;45.630;8.886;2023-06-22T09:50:53;18.45;;;6.70;;
34405;SDS011;20658;45.630;8.886;2023-06-22T09:53:26;16.65;;;5.88;;
34405;SDS011;20658;45.630;8.886;2023-06-22T09:56:00;18.23;;;6.70;;
34405;SDS011;20658;45.630;8.886;2023-06-22T09:58:35;20.25;;;6.10;;
34405;SDS011;20658;45.630;8.886;2023-06-22T10:01:08;16.08;;;6.30;;
34405;SDS011;20658;45.630;8.886;2023-06-22T10:03:42;10.27;;;5.80;;
34405;SDS011;20658;45.630;8.886;2023-06-22T10:06:15;14.60;;;5.55;;
34405;SDS011;20658;45.630;8.886;2023-06-22T10:08:49;14.15;;;5.68;;
34405;SDS011;20658;45.630;8.886;2023-06-22T10:11:24;18.35;;;6.88;;
34405;SDS011;20658;45.630;8.886;2023-06-22T10:14:02;18.25;;;6.90;;
34405;SDS011;20658;45.630;8.886;2023-06-22T10:16:36;15.10;;;6.28;;
34405;SDS011;20658;45.630;8.886;2023-06-22T10:19:10;16.30;;;6.65;;
34405;SDS011;20658;45.630;8.886;2023-06-22T10:21:43;16.60;;;6.35;;
34405;SDS011;20658;45.630;8.886;2023-06-22T10:24:17;18.35;;;6.40;;
34405;SDS011;20658;45.630;8.886;2023-06-22T10:26:50;15.07;;;5.80;;
34405;SDS011;20658;45.630;8.886;2023-06-22T10:29:25;16.70;;;6.13;;
34405;SDS011;20658;45.630;8.886;2023-06-22T10:31:58;13.98;;;6.75;;
34405;SDS011;20658;45.630;8.886;2023-06-22T10:34:32;18.60;;;5.68;;
34405;SDS011;20658;45.630;8.886;2023-06-22T10:37:05;18.90;;;6.88;;
34405;SDS011;20658;45.630;8.886;2023-06-22T10:39:39;20.42;;;6.20;;
34405;SDS011;20658;45.630;8.886;2023-06-22T10:42:12;17.77;;;6.40;;
34405;SDS011;20658;45.630;8.886;2023-06-22T10:44:47;20.60;;;7.15;;
34405;SDS011;20658;45.630;8.886;2023-06-22T10:47:21;13.45;;;6.47;;
34405;SDS011;20658;45.630;8.886;2023-06-22T10:49:54;15.90;;;6.45;;
34405;SDS011;20658;45.630;8.886;2023-06-22T10:52:27;13.90;;;6.28;;
34405;SDS011;20658;45.630;8.886;2023-06-22T10:54:56;13.70;;;6.15;;
34405;SDS011;20658;45.630;8.886;2023-06-22T10:57:30;18.55;;;6.55;;
34405;SDS011;20658;45.630;8.886;2023-06-22T11:00:06;17.05;;;6.13;;
34405;SDS011;20658;45.630;8.886;2023-06-22T11:02:42;21.15;;;6.72;;
34405;SDS011;20658;45.630;8.886;2023-06-22T11:05:16;18.40;;;6.43;;
34405;SDS011;20658;45.630;8.886;2023-06-22T11:07:50;16.65;;;6.13;;
34405;SDS011;20658;45.630;8.886;2023-06-22T11:10:23;14.52;;;5.05;;
34405;SDS011;20658;45.630;8.886;2023-06-22T11:12:57;14.80;;;5.28;;
34405;SDS011;20658;45.630;8.886;2023-06-22T11:15:27;17.80;;;5.20;;
34405;SDS011;20658;45.630;8.886;2023-06-22T11:18:00;18.55;;;6.05;;
34405;SDS011;20658;45.630;8.886;2023-06-22T11:20:33;16.33;;;5.38;;
34405;SDS011;20658;45.630;8.886;2023-06-22T11:23:11;13.25;;;6.00;;
34405;SDS011;20658;45.630;8.886;2023-06-22T11:25:44;17.73;;;4.95;;
34405;SDS011;20658;45.630;8.886;2023-06-22T11:28:18;16.48;;;5.47;;
34405;SDS011;20658;45.630;8.886;2023-06-22T11:30:53;15.00;;;5.93;;
34405;SDS011;20658;45.630;8.886;2023-06-22T11:33:26;12.38;;;5.07;;
34405;SDS011;20658;45.630;8.886;2023-06-22T11:36:00;10.13;;;4.95;;
34405;SDS011;20658;45.630;8.886;2023-06-22T11:38:33;15.88;;;5.90;;
34405;SDS011;20658;45.630;8.886;2023-06-22T11:41:08;17.15;;;5.82;;
34405;SDS011;20658;45.630;8.886;2023-06-22T11:43:42;17.15;;;5.75;;
34405;SDS011;20658;45.630;8.886;2023-06-22T11:46:17;16.27;;;5.85;;
34405;SDS011;20658;45.630;8.886;2023-06-22T11:48:46;16.48;;;5.70;;
34405;SDS011;20658;45.630;8.886;2023-06-22T11:51:20;14.80;;;5.82;;
34405;SDS011;20658;45.630;8.886;2023-06-22T11:53:53;26.55;;;10.93;;
34405;SDS011;20658;45.630;8.886;2023-06-22T11:56:27;11.40;;;5.75;;
34405;SDS011;20658;45.630;8.886;2023-06-22T11:59:00;12.98;;;5.32;;
34405;SDS011;20658;45.630;8.886;2023-06-22T12:01:35;18.30;;;5.93;;
34405;SDS011;20658;45.630;8.886;2023-06-22T12:04:09;15.82;;;5.88;;
34405;SDS011;20658;45.630;8.886;2023-06-22T12:06:42;16.25;;;5.80;;
34405;SDS011;20658;45.630;8.886;2023-06-22T12:09:16;16.52;;;5.55;;
34405;SDS011;20658;45.630;8.886;2023-06-22T12:11:49;14.65;;;6.60;;
34405;SDS011;20658;45.630;8.886;2023-06-22T12:14:23;12.85;;;6.45;;
34405;SDS011;20658;45.630;8.886;2023-06-22T12:16:58;18.77;;;6.50;;
34405;SDS011;20658;45.630;8.886;2023-06-22T12:19:31;15.38;;;5.90;;
34405;SDS011;20658;45.630;8.886;2023-06-22T12:22:05;15.32;;;5.93;;
34405;SDS011;20658;45.630;8.886;2023-06-22T12:24:38;13.32;;;6.38;;
34405;SDS011;20658;45.630;8.886;2023-06-22T12:27:12;15.10;;;6.10;;
34405;SDS011;20658;45.630;8.886;2023-06-22T12:29:47;13.18;;;6.25;;
34405;SDS011;20658;45.630;8.886;2023-06-22T12:32:22;18.95;;;6.43;;
34405;SDS011;20658;45.630;8.886;2023-06-22T12:34:57;19.05;;;6.50;;
34405;SDS011;20658;45.630;8.886;2023-06-22T12:37:30;14.50;;;5.78;;
34405;SDS011;20658;45.630;8.886;2023-06-22T12:40:05;17.77;;;7.57;;
34405;SDS011;20658;45.630;8.886;2023-06-22T12:42:40;26.33;;;6.90;;
34405;SDS011;20658;45.630;8.886;2023-06-22T12:45:14;22.02;;;6.78;;
34405;SDS011;20658;45.630;8.886;2023-06-22T12:47:49;20.02;;;7.30;;
34405;SDS011;20658;45.630;8.886;2023-06-22T12:50:22;22.35;;;7.00;;
34405;SDS011;20658;45.630;8.886;2023-06-22T12:52:50;14.55;;;6.18;;
34405;SDS011;20658;45.630;8.886;2023-06-22T12:55:24;20.30;;;6.28;;
34405;SDS011;20658;45.630;8.886;2023-06-22T12:57:57;18.95;;;7.20;;
34405;SDS011;20658;45.630;8.886;2023-06-22T13:00:26;14.90;;;6.35;;
34405;SDS011;20658;45.630;8.886;2023-06-22T13:02:56;13.55;;;6.57;;
34405;SDS011;20658;45.630;8.886;2023-06-22T13:05:24;18.10;;;7.07;;
34405;SDS011;20658;45.630;8.886;2023-06-22T13:07:58;15.48;;;5.97;;
34405;SDS011;20658;45.630;8.886;2023-06-22T13:10:26;12.40;;;5.97;;
34405;SDS011;20658;45.630;8.886;2023-06-22T13:13:00;22.15;;;7.10;;
34405;SDS011;20658;45.630;8.886;2023-06-22T13:15:33;18.17;;;6.43;;
34405;SDS011;20658;45.630;8.886;2023-06-22T13:18:03;16.60;;;6.82;;
34405;SDS011;20658;45.630;8.886;2023-06-22T13:20:37;22.52;;;7.65;;
34405;SDS011;20658;45.630;8.886;2023-06-22T13:23:10;21.58;;;6.60;;
34405;SDS011;20658;45.630;8.886;2023-06-22T13:25:44;18.95;;;6.78;;
34405;SDS011;20658;45.630;8.886;2023-06-22T13:28:17;20.70;;;7.40;;
34405;SDS011;20658;45.630;8.886;2023-06-22T13:30:52;17.92;;;7.03;;
34405;SDS011;20658;45.630;8.886;2023-06-22T13:33:21;16.70;;;7.22;;
34405;SDS011;20658;45.630;8.886;2023-06-22T13:35:55;15.80;;;6.72;;
34405;SDS011;20658;45.630;8.886;2023-06-22T13:38:23;20.60;;;7.07;;
34405;SDS011;20658;45.630;8.886;2023-06-22T13:40:57;18.45;;;7.47;;
34405;SDS011;20658;45.630;8.886;2023-06-22T13:43:31;21.08;;;7.63;;
34405;SDS011;20658;45.630;8.886;2023-06-22T13:46:04;18.27;;;6.82;;
34405;SDS011;20658;45.630;8.886;2023-06-22T13:48:39;17.20;;;7.38;;
34405;SDS011;20658;45.630;8.886;2023-06-22T13:51:13;16.27;;;6.72;;
34405;SDS011;20658;45.630;8.886;2023-06-22T13:53:46;15.63;;;6.93;;
34405;SDS011;20658;45.630;8.886;2023-06-22T13:56:15;19.42;;;6.90;;
34405;SDS011;20658;45.630;8.886;2023-06-22T13:58:48;18.38;;;7.47;;
34405;SDS011;20658;45.630;8.886;2023-06-22T14:01:21;17.45;;;6.55;;
34405;SDS011;20658;45.630;8.886;2023-06-22T14:03:56;21.77;;;7.80;;
34405;SDS011;20658;45.630;8.886;2023-06-22T14:06:25;14.70;;;6.70;;
34405;SDS011;20658;45.630;8.886;2023-06-22T14:08:58;15.10;;;6.88;;
34405;SDS011;20658;45.630;8.886;2023-06-22T14:11:32;15.90;;;7.55;;
34405;SDS011;20658;45.630;8.886;2023-06-22T14:14:06;17.40;;;6.68;;
34405;SDS011;20658;45.630;8.886;2023-06-22T14:16:39;19.42;;;7.30;;
34405;SDS011;20658;45.630;8.886;2023-06-22T14:19:14;17.80;;;7.80;;
34405;SDS011;20658;45.630;8.886;2023-06-22T14:21:44;20.83;;;8.57;;
34405;SDS011;20658;45.630;8.886;2023-06-22T14:24:18;13.68;;;7.07;;
34405;SDS011;20658;45.630;8.886;2023-06-22T14:26:51;16.17;;;7.30;;
34405;SDS011;20658;45.630;8.886;2023-06-22T14:29:22;20.02;;;8.40;;
34405;SDS011;20658;45.630;8.886;2023-06-22T14:31:55;21.20;;;7.55;;
34405;SDS011;20658;45.630;8.886;2023-06-22T14:34:25;16.30;;;7.65;;
34405;SDS011;20658;45.630;8.886;2023-06-22T14:36:54;14.80;;;7.33;;
34405;SDS011;20658;45.630;8.886;2023-06-22T14:39:27;18.05;;;7.78;;
34405;SDS011;20658;45.630;8.886;2023-06-22T14:42:01;15.35;;;7.35;;
34405;SDS011;20658;45.630;8.886;2023-06-22T14:44:35;31.65;;;7.97;;
34405;SDS011;20658;45.630;8.886;2023-06-22T14:47:09;17.50;;;7.28;;
34405;SDS011;20658;45.630;8.886;2023-06-22T14:49:47;23.35;;;7.13;;
34405;SDS011;20658;45.630;8.886;2023-06-22T14:52:16;17.60;;;5.82;;
34405;SDS011;20658;45.630;8.886;2023-06-22T14:54:49;16.15;;;6.70;;
34405;SDS011;20658;45.630;8.886;2023-06-22T14:57:23;18.50;;;6.97;;
34405;SDS011;20658;45.630;8.886;2023-06-22T14:59:57;14.07;;;6.25;;
34405;SDS011;20658;45.630;8.886;2023-06-22T15:02:27;14.45;;;7.28;;
34405;SDS011;20658;45.630;8.886;2023-06-22T15:05:03;18.92;;;6.65;;
34405;SDS011;20658;45.630;8.886;2023-06-22T15:07:41;17.73;;;6.00;;
34405;SDS011;20658;45.630;8.886;2023-06-22T15:10:14;18.73;;;6.32;;
34405;SDS011;20658;45.630;8.886;2023-06-22T15:12:48;12.82;;;5.85;;